Time;durP1;ratioP1;P1;durP2;ratioP2;P2;SDS_P1;SDS_P2;PMS_P1;PMS_P2;Temp;Humidity;BMP_temperature;BMP_pressure;BME280_temperature;BME280_humidity;BME280_pressure;Samples;Min_cycle;Max_cycle;Signal;HPM_P1;HPM_P2
2021/09/30 00:00:56;;;;;;;12.47;11.67;;;8.60;93.10;;;;;;6225679;23;20410;-89
2021/09/30 00:03:26;;;;;;;11.43;10.63;;;8.60;93.40;;;;;;6226002;23;20416;-90
2021/09/30 00:06:04;;;;;;;12.23;11.33;;;8.50;93.20;;;;;;6225624;23;20976;-89
2021/09/30 00:08:32;;;;;;;12.37;11.37;;;8.60;93.40;;;;;;6225667;23;20412;-89
2021/09/30 00:11:06;;;;;;;11.87;10.70;;;8.50;93.50;;;;;;6226183;23;20412;-89
2021/09/30 00:13:47;;;;;;;11.87;11.00;;;8.60;93.20;;;;;;6225108;23;20404;-88
2021/09/30 00:16:33;;;;;;;10.97;10.17;;;8.60;93.00;;;;;;6216068;23;20475;-89
2021/09/30 00:33:07;;;;;;;13.23;9.43;;;8.70;92.10;;;;;;6225577;23;20407;-88
2021/09/30 00:35:44;;;;;;;9.30;8.40;;;8.80;91.40;;;;;;6225697;23;20397;-88
2021/09/30 00:47:02;;;;;;;6.13;5.43;;;9.10;90.30;;;;;;6225719;23;20486;-89
2021/09/30 00:49:42;;;;;;;5.73;5.27;;;9.10;89.90;;;;;;6225632;23;20436;-88
2021/09/30 00:52:34;;;;;;;10.77;6.17;;;9.00;88.40;;;;;;6225738;23;20502;-89
2021/09/30 01:52:01;;;;;;;13.43;12.40;;;8.50;92.20;;;;;;6215033;23;20431;-88
2021/09/30 02:58:26;;;;;;;22.90;21.30;;;8.00;97.90;;;;;;6124654;23;20435;-89
2021/09/30 03:01:05;;;;;;;24.23;22.40;;;7.80;97.20;;;;;;6202137;23;20511;-89
2021/09/30 03:03:37;;;;;;;24.87;23.30;;;7.90;97.20;;;;;;6226784;23;20404;-89
2021/09/30 03:06:07;;;;;;;25.60;23.80;;;7.90;97.30;;;;;;6216535;23;20404;-89
2021/09/30 03:08:46;;;;;;;25.40;23.90;;;8.00;97.30;;;;;;6226298;23;20807;-90
2021/09/30 03:11:23;;;;;;;26.23;24.67;;;7.80;97.90;;;;;;6216711;23;20407;-89
2021/09/30 03:14:00;;;;;;;26.53;24.90;;;7.80;97.80;;;;;;6215387;23;20411;-89
2021/09/30 03:16:35;;;;;;;26.50;25.10;;;7.90;97.90;;;;;;6216517;23;20404;-88
2021/09/30 03:19:04;;;;;;;27.63;25.93;;;7.80;97.70;;;;;;6226829;23;20712;-89
2021/09/30 03:24:18;;;;;;;25.77;24.00;;;7.80;97.40;;;;;;6199018;23;20408;-89
2021/09/30 03:26:49;;;;;;;27.27;25.40;;;7.80;97.20;;;;;;6226235;23;20494;-88
2021/09/30 03:29:27;;;;;;;26.27;24.57;;;7.90;97.70;;;;;;6225323;23;20416;-89
2021/09/30 03:31:56;;;;;;;27.07;25.50;;;7.90;97.40;;;;;;6226441;23;20488;-88
2021/09/30 03:34:31;;;;;;;32.20;29.30;;;7.70;97.90;;;;;;6216537;23;20400;-88
2021/09/30 03:37:00;;;;;;;30.87;28.80;;;7.70;98.70;;;;;;6216495;23;20396;-89
2021/09/30 03:39:28;;;;;;;28.87;26.97;;;7.70;98.80;;;;;;6226066;23;20883;-89
2021/09/30 03:41:59;;;;;;;30.50;28.53;;;7.60;98.80;;;;;;6226355;23;21034;-86
2021/09/30 03:44:30;;;;;;;29.00;26.87;;;7.70;98.30;;;;;;6215055;23;20436;-86
2021/09/30 03:46:59;;;;;;;28.07;26.23;;;7.60;98.40;;;;;;6215891;23;20428;-89
2021/09/30 03:49:31;;;;;;;28.10;26.30;;;7.70;98.20;;;;;;6226386;23;20726;-90
2021/09/30 03:52:08;;;;;;;31.13;29.33;;;7.50;98.20;;;;;;6226087;23;20416;-88
2021/09/30 03:54:52;;;;;;;31.10;29.20;;;7.60;99.30;;;;;;6226194;23;20435;-88
2021/09/30 03:57:37;;;;;;;31.43;29.13;;;7.60;99.60;;;;;;6226170;23;20432;-90
2021/09/30 04:00:07;;;;;;;30.93;29.20;;;7.60;98.70;;;;;;6224849;23;20414;-89
2021/09/30 04:02:43;;;;;;;31.93;30.37;;;7.60;98.80;;;;;;6226193;23;20400;-89
2021/09/30 04:05:15;;;;;;;31.13;29.33;;;7.70;98.70;;;;;;6225851;23;20412;-89
2021/09/30 04:07:43;;;;;;;30.13;28.43;;;7.70;98.30;;;;;;6225631;23;20494;-89
2021/09/30 04:10:12;;;;;;;29.30;26.87;;;7.70;98.20;;;;;;6216039;23;20428;-90
2021/09/30 04:12:40;;;;;;;28.63;26.93;;;7.70;98.40;;;;;;6225990;23;20411;-88
2021/09/30 04:15:13;;;;;;;26.90;25.30;;;7.70;98.50;;;;;;6224439;23;20418;-89
2021/09/30 04:17:44;;;;;;;28.03;26.53;;;7.70;97.80;;;;;;6225912;23;20404;-89
2021/09/30 04:20:17;;;;;;;28.23;25.07;;;7.70;98.30;;;;;;6226110;23;20408;-88
2021/09/30 04:22:44;;;;;;;27.60;25.67;;;7.60;97.80;;;;;;6225698;23;20396;-87
2021/09/30 04:25:15;;;;;;;27.50;25.90;;;7.60;98.10;;;;;;6225478;23;20725;-88
2021/09/30 04:27:44;;;;;;;25.80;24.30;;;7.60;98.40;;;;;;6225803;23;20439;-89
2021/09/30 04:30:16;;;;;;;24.97;23.07;;;7.70;97.90;;;;;;6224671;23;20916;-89
2021/09/30 04:32:49;;;;;;;23.30;21.90;;;7.80;97.20;;;;;;6215819;23;20397;-88
2021/09/30 04:35:29;;;;;;;24.13;22.63;;;7.80;97.20;;;;;;6226067;23;20736;-88
2021/09/30 04:37:57;;;;;;;22.63;21.13;;;7.60;97.10;;;;;;6225392;23;20463;-89
2021/09/30 04:40:32;;;;;;;25.70;23.13;;;7.60;97.10;;;;;;6215217;23;20396;-88
2021/09/30 04:43:45;;;;;;;24.50;22.67;;;7.70;97.40;;;;;;6225574;23;20400;-88
2021/09/30 04:46:16;;;;;;;23.30;21.80;;;7.60;97.40;;;;;;6123463;23;20820;-87
2021/09/30 04:48:48;;;;;;;26.37;23.67;;;7.60;97.20;;;;;;6204246;23;20448;-87
2021/09/30 04:51:17;;;;;;;24.40;23.10;;;7.60;97.90;;;;;;6215457;23;20896;-84
2021/09/30 04:53:47;;;;;;;21.60;20.20;;;7.50;98.00;;;;;;6215337;23;20444;-86
2021/09/30 04:56:16;;;;;;;24.20;22.80;;;7.40;97.90;;;;;;6225476;23;20481;-88
2021/09/30 04:58:43;;;;;;;28.50;26.07;;;7.40;98.30;;;;;;6224916;23;20420;-83
2021/09/30 05:01:10;;;;;;;28.70;25.90;;;7.40;98.70;;;;;;6215860;23;20440;-87
2021/09/30 05:03:39;;;;;;;29.17;27.20;;;7.40;98.60;;;;;;6225739;23;20451;-86
2021/09/30 05:06:08;;;;;;;26.97;25.40;;;7.40;99.40;;;;;;6225720;23;20416;-86
2021/09/30 05:08:39;;;;;;;29.53;27.63;;;7.30;99.00;;;;;;6216064;23;20436;-83
2021/09/30 05:11:06;;;;;;;31.00;28.50;;;7.40;99.30;;;;;;6225252;23;20412;-85
2021/09/30 05:13:57;;;;;;;34.50;32.33;;;7.20;99.80;;;;;;6224268;23;20488;-86
2021/09/30 05:16:55;;;;;;;;;;;;;;;;;;;;;
2021/09/30 05:22:43;;;;;;;37.97;35.83;;;7.20;99.90;;;;;;6183448;23;20408;-86
2021/09/30 05:25:13;;;;;;;41.53;39.50;;;7.00;99.90;;;;;;6225267;23;20408;-90
2021/09/30 05:31:14;;;;;;;51.60;48.80;;;6.90;99.90;;;;;;6213500;23;20418;-89
2021/09/30 05:33:41;;;;;;;52.23;49.53;;;7.00;99.90;;;;;;6215682;23;20401;-89
2021/09/30 05:36:26;;;;;;;52.13;49.57;;;7.10;99.90;;;;;;6217340;23;20458;-87
2021/09/30 05:39:01;;;;;;;54.70;50.50;;;7.20;99.90;;;;;;6229224;23;20420;-89
2021/09/30 05:41:31;;;;;;;51.90;48.83;;;7.10;99.90;;;;;;6228563;23;20519;-90
2021/09/30 05:44:07;;;;;;;48.20;45.90;;;7.10;99.90;;;;;;6226943;23;20440;-87
2021/09/30 05:46:41;;;;;;;46.90;44.30;;;7.20;99.90;;;;;;6198126;23;20471;-86
2021/09/30 05:49:10;;;;;;;47.63;45.13;;;7.20;99.90;;;;;;6199082;23;20420;-87
2021/09/30 05:52:01;;;;;;;47.73;45.33;;;7.20;99.90;;;;;;6198642;23;20500;-87
2021/09/30 05:54:28;;;;;;;46.03;43.20;;;7.30;99.90;;;;;;6198445;23;20487;-89
2021/09/30 05:56:55;;;;;;;43.43;41.00;;;7.40;99.90;;;;;;6188644;23;20407;-89
2021/09/30 05:59:22;;;;;;;42.00;39.00;;;7.50;99.90;;;;;;6187536;23;20798;-86
2021/09/30 06:10:38;;;;;;;28.03;26.10;;;8.10;99.90;;;;;;6198401;23;20400;-88
2021/09/30 06:13:08;;;;;;;29.00;26.90;;;7.80;99.90;;;;;;6198322;23;20416;-90
2021/09/30 06:15:40;;;;;;;27.27;25.50;;;7.90;99.90;;;;;;6187958;23;20447;-84
2021/09/30 06:18:08;;;;;;;28.27;26.23;;;7.90;99.90;;;;;;6199485;23;20444;-87
2021/09/30 06:20:37;;;;;;;24.60;23.13;;;8.10;99.60;;;;;;6189712;23;20480;-91
2021/09/30 06:23:04;;;;;;;20.97;19.27;;;8.00;99.20;;;;;;6188976;23;20469;-87
2021/09/30 06:25:31;;;;;;;20.80;19.00;;;8.20;98.40;;;;;;6188672;23;20887;-89
2021/09/30 06:27:58;;;;;;;21.30;19.67;;;8.20;98.00;;;;;;6198564;23;20834;-89
2021/09/30 06:30:29;;;;;;;17.73;16.50;;;8.30;98.10;;;;;;6187559;23;20437;-89
2021/09/30 06:32:56;;;;;;;22.53;14.97;;;8.40;97.50;;;;;;6188564;23;20401;-89
2021/09/30 06:35:25;;;;;;;16.43;15.10;;;8.40;96.20;;;;;;6188571;23;20432;-92
2021/09/30 06:37:52;;;;;;;15.33;13.73;;;8.70;96.00;;;;;;6188394;23;20401;-90
2021/09/30 06:40:23;;;;;;;17.70;14.80;;;8.60;95.80;;;;;;6188647;23;20697;-87
2021/09/30 06:42:50;;;;;;;13.67;10.43;;;8.60;94.80;;;;;;6194697;23;20467;-87
2021/09/30 06:45:17;;;;;;;11.50;8.57;;;8.70;93.90;;;;;;6211420;23;20439;-87
2021/09/30 06:47:44;;;;;;;12.70;8.73;;;8.70;92.50;;;;;;6226859;23;20428;-85
2021/09/30 06:50:13;;;;;;;9.77;8.80;;;8.80;92.30;;;;;;6226708;23;20407;-84
2021/09/30 06:52:41;;;;;;;12.37;8.00;;;8.90;91.90;;;;;;6226511;23;20432;-86
2021/09/30 06:55:09;;;;;;;10.73;7.13;;;8.90;91.00;;;;;;6217058;23;20697;-86
2021/09/30 06:57:36;;;;;;;14.03;8.30;;;8.90;91.00;;;;;;6216360;23;20434;-87
2021/09/30 07:00:06;;;;;;;11.50;7.47;;;8.90;91.60;;;;;;6215672;23;20796;-87
2021/09/30 07:02:35;;;;;;;13.30;7.97;;;9.00;90.70;;;;;;6216922;23;20397;-86
2021/09/30 07:05:02;;;;;;;11.00;7.77;;;9.10;90.40;;;;;;6216563;23;20440;-87
2021/09/30 07:07:29;;;;;;;11.67;8.87;;;9.30;90.60;;;;;;6216894;23;20503;-86
2021/09/30 07:09:58;;;;;;;9.33;6.60;;;9.50;90.30;;;;;;6216871;23;20436;-86
2021/09/30 07:12:24;;;;;;;9.30;6.50;;;9.50;88.90;;;;;;6216834;23;20404;-87
2021/09/30 07:14:51;;;;;;;13.60;6.87;;;9.40;88.60;;;;;;6215628;23;20485;-87
2021/09/30 07:17:18;;;;;;;11.40;7.83;;;9.50;88.80;;;;;;6216908;23;20404;-86
2021/09/30 07:19:45;;;;;;;13.17;6.90;;;9.60;88.60;;;;;;6216438;23;20483;-85
2021/09/30 07:22:22;;;;;;;17.57;5.70;;;9.70;87.10;;;;;;6216896;23;20447;-85
2021/09/30 07:24:49;;;;;;;8.57;6.57;;;9.70;84.70;;;;;;6216542;23;20492;-84
2021/09/30 07:27:18;;;;;;;5.90;5.00;;;9.90;83.40;;;;;;6226583;23;20436;-85
2021/09/30 07:29:46;;;;;;;8.03;5.00;;;9.90;82.90;;;;;;6213008;23;20408;-88
2021/09/30 07:32:16;;;;;;;9.20;5.93;;;10.10;80.30;;;;;;6225008;23;20484;-85
2021/09/30 07:34:42;;;;;;;8.20;5.53;;;10.10;79.50;;;;;;6224162;23;20711;-88
2021/09/30 07:37:10;;;;;;;16.93;7.70;;;10.20;78.50;;;;;;6215011;23;20495;-86
2021/09/30 07:39:37;;;;;;;9.27;5.30;;;10.40;77.30;;;;;;6225144;23;20438;-87
2021/09/30 07:42:04;;;;;;;5.70;4.17;;;10.60;77.50;;;;;;6225259;23;20716;-86
2021/09/30 07:44:35;;;;;;;10.57;5.23;;;10.60;75.90;;;;;;6223942;23;20443;-89
2021/09/30 07:47:03;;;;;;;9.43;4.30;;;10.80;73.30;;;;;;6225784;23;20911;-87
2021/09/30 07:49:36;;;;;;;8.17;4.30;;;10.90;71.60;;;;;;6214857;23;20432;-88
2021/09/30 07:58:53;;;;;;;9.83;3.60;;;11.10;69.00;;;;;;6136984;23;21063;-86
2021/09/30 08:01:22;;;;;;;10.80;3.70;;;11.30;67.00;;;;;;6216475;23;20408;-87
2021/09/30 08:03:49;;;;;;;8.27;4.20;;;11.40;66.60;;;;;;6216385;23;20420;-88
2021/09/30 08:06:16;;;;;;;9.90;5.00;;;11.50;65.60;;;;;;6226194;23;20880;-86
2021/09/30 08:08:45;;;;;;;14.97;4.00;;;11.80;66.00;;;;;;6226302;23;20723;-88
2021/09/30 08:11:13;;;;;;;15.20;5.57;;;11.80;63.60;;;;;;6216235;23;20427;-86
2021/09/30 08:13:40;;;;;;;5.90;3.77;;;12.00;62.70;;;;;;6224940;23;20405;-88
2021/09/30 08:16:09;;;;;;;9.57;3.17;;;12.20;63.00;;;;;;6225953;23;20425;-87
2021/09/30 08:18:37;;;;;;;9.33;3.90;;;12.20;63.00;;;;;;6226277;23;20482;-86
2021/09/30 08:21:04;;;;;;;7.60;3.50;;;12.40;62.80;;;;;;6223301;23;20442;-87
2021/09/30 08:23:36;;;;;;;11.60;3.97;;;12.50;60.80;;;;;;6224258;23;20416;-85
2021/09/30 08:26:05;;;;;;;8.40;4.17;;;12.60;59.50;;;;;;6224619;23;21125;-86
2021/09/30 08:28:40;;;;;;;12.50;3.50;;;12.60;56.60;;;;;;6214208;23;20428;-84
2021/09/30 08:31:24;;;;;;;6.80;3.50;;;12.50;56.90;;;;;;6214700;23;20400;-86
2021/09/30 08:34:07;;;;;;;17.83;4.07;;;12.60;57.20;;;;;;6211866;23;20822;-88
2021/09/30 08:36:37;;;;;;;7.73;3.80;;;12.70;57.50;;;;;;6213284;23;20749;-85
2021/09/30 08:39:07;;;;;;;9.70;3.83;;;12.70;58.90;;;;;;6224623;23;20408;-87
2021/09/30 08:41:41;;;;;;;15.13;3.77;;;12.90;58.70;;;;;;6224565;23;20408;-85
2021/09/30 08:44:08;;;;;;;8.53;2.97;;;12.80;58.80;;;;;;6223039;23;20506;-87
2021/09/30 08:46:37;;;;;;;8.83;3.57;;;12.90;57.60;;;;;;6224342;23;20793;-88
2021/09/30 08:49:11;;;;;;;15.63;4.10;;;13.00;55.40;;;;;;6225953;23;20440;-86
2021/09/30 08:51:41;;;;;;;8.43;3.57;;;13.20;54.60;;;;;;6212491;23;20400;-84
2021/09/30 08:54:21;;;;;;;10.20;3.43;;;13.50;49.10;;;;;;6224714;23;20495;-88
2021/09/30 08:57:38;;;;;;;;;;;;;;;;;;;;;
2021/09/30 09:03:36;;;;;;;8.50;2.93;;;14.70;45.30;;;;;;6145783;23;20427;-84
2021/09/30 09:06:13;;;;;;;7.23;3.10;;;14.80;42.00;;;;;;6198698;23;20478;-86
2021/09/30 09:08:40;;;;;;;5.20;2.47;;;15.10;42.80;;;;;;6224551;23;20466;-85
2021/09/30 09:11:08;;;;;;;8.70;2.83;;;15.20;40.80;;;;;;6224522;23;20745;-83
2021/09/30 09:13:39;;;;;;;6.33;2.00;;;15.30;40.00;;;;;;6214362;23;20413;-87
2021/09/30 09:16:09;;;;;;;8.53;2.70;;;15.30;40.00;;;;;;6224716;23;20417;-87
2021/09/30 09:18:46;;;;;;;5.30;1.87;;;15.50;39.70;;;;;;6224563;23;20414;-86
2021/09/30 09:21:42;;;;;;;15.33;1.80;;;15.70;38.90;;;;;;6213899;23;20463;-86
2021/09/30 09:24:15;;;;;;;6.83;1.93;;;16.00;37.90;;;;;;6224934;23;20471;-85
2021/09/30 09:26:52;;;;;;;5.13;1.90;;;16.00;37.20;;;;;;6224603;23;20421;-86
2021/09/30 09:29:21;;;;;;;9.37;1.80;;;15.90;33.90;;;;;;6223627;23;20809;-84
2021/09/30 09:31:53;;;;;;;7.93;1.93;;;15.60;31.30;;;;;;6224968;23;20488;-87
2021/09/30 09:34:27;;;;;;;6.18;2.10;;;15.90;36.10;;;;;;6214285;23;20912;-87
2021/09/30 09:37:17;;;;;;;9.33;1.90;;;15.80;34.80;;;;;;6215536;23;20160;-83
2021/09/30 09:39:45;;;;;;;5.70;1.37;;;15.80;31.40;;;;;;6215445;23;20467;-87
2021/09/30 09:42:15;;;;;;;8.60;1.60;;;16.40;32.50;;;;;;6225065;23;20418;-89
2021/09/30 09:44:54;;;;;;;8.63;1.83;;;17.10;31.50;;;;;;6223339;23;20478;-87
2021/09/30 09:47:26;;;;;;;5.77;1.43;;;16.70;29.10;;;;;;6225872;23;20416;-85
2021/09/30 09:50:13;;;;;;;16.30;1.77;;;17.20;29.10;;;;;;6215399;23;20930;-89
2021/09/30 09:53:01;;;;;;;17.90;2.13;;;17.00;28.10;;;;;;6225455;23;20439;-85
2021/09/30 09:55:32;;;;;;;19.13;1.80;;;17.40;26.80;;;;;;6225561;23;20415;-90
2021/09/30 09:58:10;;;;;;;17.17;1.80;;;16.90;26.60;;;;;;6215475;23;20453;-88
2021/09/30 10:00:43;;;;;;;18.60;2.30;;;16.50;27.20;;;;;;6224071;23;20397;-86
2021/09/30 10:03:37;;;;;;;17.37;2.03;;;16.70;26.00;;;;;;6215307;23;20402;-87
2021/09/30 10:06:13;;;;;;;14.40;1.70;;;16.70;28.10;;;;;;6225281;23;20426;-87
2021/09/30 10:09:04;;;;;;;16.70;2.27;;;16.60;28.70;;;;;;6224806;23;20447;-86
2021/09/30 10:11:31;;;;;;;19.50;1.73;;;16.60;26.40;;;;;;6213462;23;20418;-86
2021/09/30 10:14:04;;;;;;;16.00;2.17;;;17.30;27.20;;;;;;6223435;23;20810;-87
2021/09/30 10:16:33;;;;;;;17.37;2.00;;;17.50;25.50;;;;;;6225429;23;20413;-87
2021/09/30 10:19:07;;;;;;;24.17;2.07;;;17.20;25.00;;;;;;6225153;23;20412;-88
2021/09/30 10:21:58;;;;;;;14.00;1.90;;;16.80;24.70;;;;;;6217946;22;20413;-84
2021/09/30 10:24:33;;;;;;;22.30;1.73;;;16.70;24.60;;;;;;6226995;23;20926;-89
2021/09/30 10:30:02;;;;;;;14.33;1.93;;;16.50;27.20;;;;;;6224113;23;20465;-87
2021/09/30 10:32:52;;;;;;;26.43;2.50;;;17.00;25.60;;;;;;6227250;23;20465;-87
2021/09/30 10:35:39;;;;;;;8.73;1.80;;;17.20;24.50;;;;;;6215352;23;20401;-86
2021/09/30 10:38:41;;;;;;;9.87;1.37;;;16.80;24.50;;;;;;6227008;23;20414;-87
2021/09/30 10:41:16;;;;;;;15.40;1.97;;;17.00;22.00;;;;;;6227008;23;20419;-87
2021/09/30 10:43:48;;;;;;;8.70;1.63;;;16.90;22.90;;;;;;6225485;23;20453;-87
2021/09/30 10:46:51;;;;;;;9.20;1.33;;;17.10;24.90;;;;;;6217150;23;20422;-88
2021/09/30 10:49:32;;;;;;;9.97;1.80;;;18.30;24.00;;;;;;6216542;23;20920;-87
2021/09/30 10:52:35;;;;;;;10.20;1.83;;;18.50;20.70;;;;;;6217080;23;20439;-87
2021/09/30 10:55:32;;;;;;;9.50;1.57;;;19.20;17.60;;;;;;6227162;23;20737;-87
2021/09/30 10:58:22;;;;;;;10.73;2.10;;;18.70;16.90;;;;;;6227093;23;20418;-89
2021/09/30 11:01:01;;;;;;;10.50;2.13;;;19.10;18.10;;;;;;6225151;23;20907;-88
2021/09/30 11:03:35;;;;;;;9.93;1.63;;;18.30;14.20;;;;;;6217077;23;20410;-88
2021/09/30 11:06:28;;;;;;;11.47;1.90;;;18.10;16.20;;;;;;6226498;23;20413;-88
2021/09/30 11:09:21;;;;;;;7.70;1.83;;;18.00;18.30;;;;;;6226518;23;20467;-87
2021/09/30 11:12:07;;;;;;;8.93;1.97;;;17.80;13.60;;;;;;6226904;23;20438;-88
2021/09/30 11:14:56;;;;;;;9.03;1.93;;;17.60;14.60;;;;;;6215371;23;20403;-86
2021/09/30 11:17:39;;;;;;;11.80;1.83;;;17.80;16.50;;;;;;6227108;23;20770;-89
2021/09/30 11:20:39;;;;;;;8.20;1.40;;;17.80;15.60;;;;;;6226541;23;20452;-87
2021/09/30 11:23:33;;;;;;;7.90;1.97;;;17.60;15.50;;;;;;6207621;23;20441;-88
2021/09/30 11:26:06;;;;;;;8.20;1.70;;;18.20;17.70;;;;;;6216049;23;20424;-87
2021/09/30 11:28:39;;;;;;;9.10;1.53;;;17.90;15.30;;;;;;6225583;23;20487;-88
2021/09/30 11:31:25;;;;;;;16.60;1.60;;;17.20;15.20;;;;;;6226692;23;20405;-85
2021/09/30 11:34:04;;;;;;;7.43;1.40;;;17.00;17.60;;;;;;6226856;23;20409;-84
2021/09/30 11:36:32;;;;;;;9.90;1.57;;;17.00;18.90;;;;;;6226883;23;20434;-88
2021/09/30 11:38:59;;;;;;;8.10;1.47;;;17.00;17.50;;;;;;6208059;23;20456;-86
2021/09/30 11:41:28;;;;;;;7.37;1.63;;;17.00;17.60;;;;;;6226497;23;20418;-87
2021/09/30 11:43:55;;;;;;;17.87;2.33;;;17.00;18.50;;;;;;6225691;23;20440;-85
2021/09/30 11:47:07;;;;;;;8.47;1.60;;;17.10;17.70;;;;;;6217999;23;20401;-87
2021/09/30 11:50:03;;;;;;;7.87;1.97;;;17.00;17.50;;;;;;6165610;23;21050;-86
2021/09/30 11:52:34;;;;;;;13.10;1.77;;;17.40;20.00;;;;;;6172121;23;20432;-88
2021/09/30 11:55:18;;;;;;;15.53;2.20;;;18.30;17.70;;;;;;6196485;23;20497;-86
2021/09/30 11:57:58;;;;;;;8.40;1.60;;;18.60;14.00;;;;;;6186144;23;20407;-87
2021/09/30 12:00:32;;;;;;;8.90;1.43;;;19.00;14.00;;;;;;6194815;23;20406;-88
2021/09/30 12:03:06;;;;;;;10.77;1.70;;;19.40;13.40;;;;;;6195941;23;20737;-88
2021/09/30 12:05:41;;;;;;;7.57;1.83;;;19.20;12.90;;;;;;6232382;22;20763;-87
2021/09/30 12:08:10;;;;;;;10.43;1.60;;;19.50;11.90;;;;;;6246602;23;20394;-86
2021/09/30 12:10:40;;;;;;;8.80;1.63;;;19.30;11.70;;;;;;6256236;23;20446;-86
2021/09/30 12:13:31;;;;;;;8.20;1.20;;;19.30;12.70;;;;;;6246413;23;20410;-88
2021/09/30 12:16:08;;;;;;;8.10;1.77;;;18.60;12.70;;;;;;6240441;23;20777;-87
2021/09/30 12:18:35;;;;;;;7.27;1.87;;;19.40;13.00;;;;;;6256663;23;20415;-83
2021/09/30 12:21:04;;;;;;;6.83;1.53;;;19.00;12.30;;;;;;6256288;23;20402;-83
2021/09/30 12:23:31;;;;;;;7.10;1.33;;;19.20;12.40;;;;;;6256298;23;20407;-84
2021/09/30 12:26:01;;;;;;;12.43;2.20;;;19.50;11.90;;;;;;6231912;22;20444;-84
2021/09/30 12:28:28;;;;;;;12.40;2.30;;;18.80;11.30;;;;;;6256353;23;20399;-87
2021/09/30 12:30:55;;;;;;;24.03;3.13;;;18.70;14.50;;;;;;6254734;23;20510;-86
2021/09/30 12:33:32;;;;;;;10.60;1.60;;;18.30;13.70;;;;;;6256521;23;20789;-86
2021/09/30 12:36:06;;;;;;;27.53;2.10;;;18.30;15.10;;;;;;6256540;23;20408;-83
2021/09/30 12:38:33;;;;;;;8.43;1.70;;;17.90;12.10;;;;;;6255878;23;20974;-87
2021/09/30 12:41:05;;;;;;;8.13;1.30;;;17.90;15.90;;;;;;6246043;23;20883;-83
2021/09/30 12:43:33;;;;;;;8.83;2.10;;;18.20;15.80;;;;;;6255945;23;20759;-86
2021/09/30 12:46:04;;;;;;;10.80;2.20;;;18.50;14.00;;;;;;6245125;23;20403;-88
2021/09/30 12:48:34;;;;;;;7.80;1.67;;;18.30;13.00;;;;;;6246388;23;20405;-87
2021/09/30 12:51:04;;;;;;;11.40;2.33;;;18.10;12.00;;;;;;6245754;23;20940;-86
2021/09/30 12:53:41;;;;;;;10.57;1.70;;;18.40;15.00;;;;;;6256154;23;20699;-85
2021/09/30 12:56:10;;;;;;;8.87;2.10;;;17.80;14.70;;;;;;6245782;23;20415;-84
2021/09/30 12:58:39;;;;;;;8.07;2.17;;;17.30;15.70;;;;;;6254911;23;20413;-82
2021/09/30 13:01:25;;;;;;;14.63;1.87;;;17.20;17.70;;;;;;6246249;23;20413;-84
2021/09/30 13:04:08;;;;;;;8.80;1.90;;;17.10;17.90;;;;;;6246229;23;20397;-84
2021/09/30 13:06:36;;;;;;;15.90;2.10;;;16.90;17.80;;;;;;6246209;23;20400;-86
2021/09/30 13:09:07;;;;;;;6.67;1.17;;;16.90;19.40;;;;;;6256132;23;20432;-82
2021/09/30 13:11:37;;;;;;;8.50;1.40;;;16.70;19.00;;;;;;6256357;23;20414;-85
2021/09/30 13:14:22;;;;;;;32.63;2.40;;;16.60;18.50;;;;;;6244935;23;20426;-84
2021/09/30 13:16:51;;;;;;;7.97;1.93;;;16.40;20.40;;;;;;6256060;23;20484;-83
2021/09/30 13:19:19;;;;;;;8.63;1.90;;;16.20;19.90;;;;;;6245659;23;20939;-84
2021/09/30 13:22:04;;;;;;;7.40;1.80;;;16.40;20.60;;;;;;6245673;23;20495;-85
2021/09/30 13:24:35;;;;;;;5.27;0.70;;;16.10;20.70;;;;;;6256508;23;20403;-86
2021/09/30 13:27:03;;;;;;;5.40;1.30;;;16.10;22.10;;;;;;6245597;23;20496;-84
2021/09/30 13:29:30;;;;;;;5.13;1.20;;;16.00;21.70;;;;;;6244862;23;20752;-84
2021/09/30 13:32:08;;;;;;;4.40;1.10;;;15.80;22.00;;;;;;6245536;23;20429;-83
2021/09/30 13:34:35;;;;;;;8.30;1.33;;;15.80;21.00;;;;;;6181308;22;20444;-85
2021/09/30 13:37:03;;;;;;;5.87;1.67;;;15.80;22.20;;;;;;6212516;23;20402;-85
2021/09/30 13:39:32;;;;;;;5.17;1.27;;;15.70;22.20;;;;;;6215723;23;20993;-86
2021/09/30 13:42:02;;;;;;;4.00;1.30;;;15.80;22.50;;;;;;6225629;23;20450;-87
2021/09/30 13:44:29;;;;;;;4.97;1.40;;;15.80;24.10;;;;;;6224179;23;20415;-86
2021/09/30 13:46:56;;;;;;;4.17;0.80;;;15.90;24.10;;;;;;6225308;23;20412;-85
2021/09/30 13:49:23;;;;;;;4.70;1.47;;;15.70;23.90;;;;;;6215137;23;20407;-86
2021/09/30 13:51:50;;;;;;;11.53;1.40;;;15.70;23.10;;;;;;6215415;23;20461;-85
2021/09/30 13:54:19;;;;;;;4.17;1.13;;;15.60;23.90;;;;;;6215514;23;20438;-83
2021/09/30 13:56:47;;;;;;;261.27;24.70;;;15.60;24.40;;;;;;6216202;23;20454;-88
2021/09/30 13:59:16;;;;;;;6.30;0.97;;;15.50;24.30;;;;;;6216294;23;20453;-83
2021/09/30 14:01:42;;;;;;;4.67;1.77;;;15.70;26.30;;;;;;6217135;23;20458;-85
2021/09/30 14:04:09;;;;;;;5.03;1.13;;;15.50;23.80;;;;;;6217142;23;20456;-85
2021/09/30 14:06:36;;;;;;;4.17;1.17;;;15.50;24.80;;;;;;6226994;23;20955;-85
2021/09/30 14:09:03;;;;;;;7.00;1.33;;;15.50;25.80;;;;;;6216833;23;20473;-83
2021/09/30 14:11:30;;;;;;;4.33;1.20;;;15.60;26.20;;;;;;6216884;23;20468;-83
2021/09/30 14:13:57;;;;;;;3.70;1.30;;;15.70;26.50;;;;;;6215778;23;20472;-88
2021/09/30 14:16:26;;;;;;;7.43;1.63;;;15.70;27.00;;;;;;6217254;23;20887;-83
2021/09/30 14:18:55;;;;;;;6.23;1.10;;;15.80;26.30;;;;;;6216867;23;20402;-86
2021/09/30 14:21:22;;;;;;;3.70;1.23;;;15.90;24.50;;;;;;6227297;23;20448;-86
2021/09/30 14:23:49;;;;;;;5.00;0.90;;;15.90;24.10;;;;;;6226897;23;20415;-82
2021/09/30 14:26:16;;;;;;;6.07;1.30;;;16.10;23.10;;;;;;6216602;23;20929;-87
2021/09/30 14:28:43;;;;;;;4.03;1.20;;;16.50;23.60;;;;;;6215186;23;20485;-84
2021/09/30 14:31:10;;;;;;;5.43;1.03;;;16.70;23.40;;;;;;6226962;23;20444;-84
2021/09/30 14:33:39;;;;;;;5.43;1.53;;;17.00;21.70;;;;;;6217115;23;20399;-87
2021/09/30 14:36:06;;;;;;;4.60;1.07;;;17.00;20.20;;;;;;6244141;23;20437;-84
2021/09/30 14:38:33;;;;;;;10.13;1.90;;;17.00;19.40;;;;;;6247484;23;20436;-88
2021/09/30 14:41:00;;;;;;;5.70;1.47;;;17.00;19.70;;;;;;6257746;23;20435;-83
2021/09/30 14:43:31;;;;;;;3.57;0.90;;;16.90;17.50;;;;;;6257613;23;20406;-88
2021/09/30 14:45:59;;;;;;;4.40;1.53;;;17.00;19.30;;;;;;6246954;23;20397;-86
2021/09/30 14:48:26;;;;;;;8.43;1.53;;;17.10;18.40;;;;;;6247531;23;20434;-87
2021/09/30 14:50:54;;;;;;;7.23;1.37;;;16.90;17.70;;;;;;6170563;22;20488;-82
2021/09/30 14:53:21;;;;;;;4.20;1.43;;;16.90;19.30;;;;;;6257470;23;20409;-83
2021/09/30 14:55:48;;;;;;;6.13;1.10;;;16.70;21.70;;;;;;6257220;23;20485;-85
2021/09/30 14:58:17;;;;;;;9.93;2.20;;;16.70;22.40;;;;;;6247670;23;20404;-85
2021/09/30 15:00:44;;;;;;;5.20;1.00;;;16.20;21.20;;;;;;6256083;23;20417;-84
2021/09/30 15:03:11;;;;;;;4.87;1.47;;;16.00;21.60;;;;;;6257202;23;20449;-86
2021/09/30 15:05:40;;;;;;;7.83;2.60;;;16.00;23.40;;;;;;6257400;23;20472;-84
2021/09/30 15:08:08;;;;;;;6.80;0.93;;;15.70;23.70;;;;;;6257040;23;20418;-85
2021/09/30 15:10:35;;;;;;;4.70;1.03;;;15.60;23.90;;;;;;6247065;23;20527;-82
2021/09/30 15:13:02;;;;;;;5.23;0.90;;;15.60;23.90;;;;;;6247208;23;20405;-83
2021/09/30 15:15:35;;;;;;;3.40;1.00;;;15.40;24.70;;;;;;6245604;23;20479;-86
2021/09/30 15:18:03;;;;;;;6.37;1.03;;;15.30;25.70;;;;;;6247223;23;20397;-88
2021/09/30 15:23:18;;;;;;;3.47;1.33;;;15.20;27.20;;;;;;6247053;23;20394;-82
2021/09/30 15:25:47;;;;;;;3.37;0.80;;;15.30;28.20;;;;;;6247114;23;20769;-88
2021/09/30 15:30:57;;;;;;;4.60;1.17;;;15.10;28.10;;;;;;6181645;22;20446;-86
2021/09/30 15:33:24;;;;;;;9.30;1.40;;;15.00;29.00;;;;;;6257385;22;20400;-84
2021/09/30 15:35:55;;;;;;;7.30;1.20;;;15.00;28.00;;;;;;6257304;23;20414;-85
2021/09/30 15:38:26;;;;;;;6.70;2.07;;;15.00;28.20;;;;;;6257315;23;20403;-83
2021/09/30 15:40:58;;;;;;;4.03;0.93;;;14.90;28.80;;;;;;6257031;23;20412;-83
2021/09/30 15:43:27;;;;;;;6.30;1.43;;;15.00;29.80;;;;;;6246447;23;20430;-84
2021/09/30 15:45:56;;;;;;;3.77;1.10;;;14.90;30.50;;;;;;6255806;23;20474;-85
2021/09/30 15:48:23;;;;;;;7.00;1.40;;;14.90;30.60;;;;;;6257035;22;20499;-85
2021/09/30 15:50:50;;;;;;;8.30;1.80;;;14.80;32.60;;;;;;6246434;23;20761;-82
2021/09/30 15:53:17;;;;;;;4.40;1.03;;;14.80;32.40;;;;;;6257130;23;20724;-84
2021/09/30 15:55:46;;;;;;;4.90;1.07;;;14.80;32.00;;;;;;6256365;23;20494;-85
2021/09/30 15:58:13;;;;;;;5.40;1.13;;;14.80;32.00;;;;;;6256373;23;20416;-83
2021/09/30 16:00:41;;;;;;;4.07;1.13;;;14.80;31.20;;;;;;6255219;23;20731;-84
2021/09/30 16:03:08;;;;;;;12.37;1.80;;;14.90;30.50;;;;;;6256658;23;20790;-86
2021/09/30 16:05:35;;;;;;;23.47;2.13;;;14.90;30.00;;;;;;6246797;23;20407;-86
2021/09/30 16:08:05;;;;;;;3.60;1.40;;;14.80;30.00;;;;;;6256842;22;20412;-86
2021/09/30 16:10:32;;;;;;;5.10;1.53;;;14.80;30.40;;;;;;6226006;23;20753;-86
2021/09/30 16:13:08;;;;;;;5.47;1.10;;;14.80;29.30;;;;;;6216350;23;20513;-85
2021/09/30 16:15:36;;;;;;;4.43;1.00;;;14.60;30.00;;;;;;6225055;23;20418;-88